sensor_id;sensor_type;location;lat;lon;timestamp;pressure;altitude;pressure_sealevel;temperature
64488;BMP280;50864;45.050;39.014;2022-10-22T00:01:01;102531.53;;;6.05
64488;BMP280;50864;45.050;39.014;2022-10-22T00:03:30;102524.19;;;6.07
64488;BMP280;50864;45.050;39.014;2022-10-22T00:05:56;102526.22;;;6.12
64488;BMP280;50864;45.050;39.014;2022-10-22T00:08:24;102530.12;;;6.16
64488;BMP280;50864;45.050;39.014;2022-10-22T00:10:50;102526.41;;;6.17
64488;BMP280;50864;45.050;39.014;2022-10-22T00:13:17;102530.91;;;6.23
64488;BMP280;50864;45.050;39.014;2022-10-22T00:15:43;102532.34;;;6.25
64488;BMP280;50864;45.050;39.014;2022-10-22T00:18:10;102533.97;;;6.26
64488;BMP280;50864;45.050;39.014;2022-10-22T00:20:35;102530.69;;;6.31
64488;BMP280;50864;45.050;39.014;2022-10-22T00:23:01;102537.25;;;6.35
64488;BMP280;50864;45.050;39.014;2022-10-22T00:25:28;102544.78;;;6.38
64488;BMP280;50864;45.050;39.014;2022-10-22T00:27:54;102530.28;;;6.40
64488;BMP280;50864;45.050;39.014;2022-10-22T00:30:19;102541.72;;;6.41
64488;BMP280;50864;45.050;39.014;2022-10-22T00:32:46;102535.19;;;6.43
64488;BMP280;50864;45.050;39.014;2022-10-22T00:35:11;102539.69;;;6.43
64488;BMP280;50864;45.050;39.014;2022-10-22T00:37:40;102535.97;;;6.44
64488;BMP280;50864;45.050;39.014;2022-10-22T00:40:07;102535.56;;;6.47
64488;BMP280;50864;45.050;39.014;2022-10-22T00:42:33;102545.56;;;6.52
64488;BMP280;50864;45.050;39.014;2022-10-22T00:45:04;102544.16;;;6.56
64488;BMP280;50864;45.050;39.014;2022-10-22T00:47:50;102548.22;;;6.58
64488;BMP280;50864;45.050;39.014;2022-10-22T00:50:25;102554.38;;;6.59
64488;BMP280;50864;45.050;39.014;2022-10-22T00:52:53;102545.34;;;6.60
64488;BMP280;50864;45.050;39.014;2022-10-22T00:55:21;102542.09;;;6.58
64488;BMP280;50864;45.050;39.014;2022-10-22T00:57:48;102541.06;;;6.59
64488;BMP280;50864;45.050;39.014;2022-10-22T01:00:15;102543.72;;;6.59
64488;BMP280;50864;45.050;39.014;2022-10-22T01:02:41;102545.34;;;6.60
64488;BMP280;50864;45.050;39.014;2022-10-22T01:05:07;102549.88;;;6.59
64488;BMP280;50864;45.050;39.014;2022-10-22T01:07:39;102546.19;;;6.60
64488;BMP280;50864;45.050;39.014;2022-10-22T01:15:25;102546.16;;;6.67
64488;BMP280;50864;45.050;39.014;2022-10-22T01:23:35;102551.66;;;6.72
64488;BMP280;50864;45.050;39.014;2022-10-22T01:31:12;102543.50;;;6.67
64488;BMP280;50864;45.050;39.014;2022-10-22T01:33:42;102547.19;;;6.66
64488;BMP280;50864;45.050;39.014;2022-10-22T01:36:10;102543.50;;;6.67
64488;BMP280;50864;45.050;39.014;2022-10-22T01:38:37;102547.56;;;6.69
64488;BMP280;50864;45.050;39.014;2022-10-22T01:41:05;102552.28;;;6.74
64488;BMP280;50864;45.050;39.014;2022-10-22T01:43:31;102549.19;;;6.77
64488;BMP280;50864;45.050;39.014;2022-10-22T01:45:59;102545.69;;;6.76
64488;BMP280;50864;45.050;39.014;2022-10-22T01:48:59;102544.87;;;6.76
64488;BMP280;50864;45.050;39.014;2022-10-22T01:59:52;102547.97;;;6.73
64488;BMP280;50864;45.050;39.014;2022-10-22T02:02:35;102553.47;;;6.78
64488;BMP280;50864;45.050;39.014;2022-10-22T02:05:06;102550.81;;;6.78
64488;BMP280;50864;45.050;39.014;2022-10-22T02:07:42;102556.34;;;6.76
64488;BMP280;50864;45.050;39.014;2022-10-22T02:10:09;102551.00;;;6.83
64488;BMP280;50864;45.050;39.014;2022-10-22T02:12:37;102555.31;;;6.84
64488;BMP280;50864;45.050;39.014;2022-10-22T02:15:03;102551.81;;;6.83
64488;BMP280;50864;45.050;39.014;2022-10-22T02:17:33;102553.03;;;6.87
64488;BMP280;50864;45.050;39.014;2022-10-22T02:20:05;102561.00;;;6.87
64488;BMP280;50864;45.050;39.014;2022-10-22T02:22:32;102562.47;;;6.83
64488;BMP280;50864;45.050;39.014;2022-10-22T02:24:59;102556.56;;;6.81
64488;BMP280;50864;45.050;39.014;2022-10-22T02:27:32;102566.97;;;6.83
64488;BMP280;50864;45.050;39.014;2022-10-22T02:30:06;102564.72;;;6.87
64488;BMP280;50864;45.050;39.014;2022-10-22T02:32:44;102572.47;;;6.88
64488;BMP280;50864;45.050;39.014;2022-10-22T02:35:13;102559.41;;;6.87
64488;BMP280;50864;45.050;39.014;2022-10-22T02:37:40;102562.47;;;6.83
64488;BMP280;50864;45.050;39.014;2022-10-22T02:40:07;102566.56;;;6.86
64488;BMP280;50864;45.050;39.014;2022-10-22T02:42:35;102565.75;;;6.85
64488;BMP280;50864;45.050;39.014;2022-10-22T02:45:02;102559.81;;;6.83
64488;BMP280;50864;45.050;39.014;2022-10-22T02:47:28;102562.69;;;6.82
64488;BMP280;50864;45.050;39.014;2022-10-22T02:49:55;102559.22;;;6.81
64488;BMP280;50864;45.050;39.014;2022-10-22T02:52:20;102573.56;;;6.80
64488;BMP280;50864;45.050;39.014;2022-10-22T02:54:46;102564.91;;;6.85
64488;BMP280;50864;45.050;39.014;2022-10-22T02:57:12;102571.88;;;6.86
64488;BMP280;50864;45.050;39.014;2022-10-22T02:59:38;102567.97;;;6.89
64488;BMP280;50864;45.050;39.014;2022-10-22T03:02:04;102568.59;;;6.91
64488;BMP280;50864;45.050;39.014;2022-10-22T03:04:30;102570.62;;;6.89
64488;BMP280;50864;45.050;39.014;2022-10-22T03:06:56;102566.56;;;6.86
64488;BMP280;50864;45.050;39.014;2022-10-22T03:09:22;102569.00;;;6.87
64488;BMP280;50864;45.050;39.014;2022-10-22T03:11:48;102572.47;;;6.88
64488;BMP280;50864;45.050;39.014;2022-10-22T03:14:14;102578.41;;;6.90
64488;BMP280;50864;45.050;39.014;2022-10-22T03:16:40;102583.53;;;6.92
64488;BMP280;50864;45.050;39.014;2022-10-22T03:19:06;102578.81;;;6.94
64488;BMP280;50864;45.050;39.014;2022-10-22T03:21:35;102578.81;;;6.94
64488;BMP280;50864;45.050;39.014;2022-10-22T03:24:05;102585.16;;;6.93
64488;BMP280;50864;45.050;39.014;2022-10-22T03:26:33;102575.53;;;6.92
64488;BMP280;50864;45.050;39.014;2022-10-22T03:28:59;102583.13;;;6.88
64488;BMP280;50864;45.050;39.014;2022-10-22T03:31:25;102585.78;;;6.88
64488;BMP280;50864;45.050;39.014;2022-10-22T03:33:51;102577.78;;;6.88
64488;BMP280;50864;45.050;39.014;2022-10-22T03:36:17;102581.50;;;6.87
64488;BMP280;50864;45.050;39.014;2022-10-22T03:38:43;102575.94;;;6.89
64488;BMP280;50864;45.050;39.014;2022-10-22T03:41:10;102574.72;;;6.91
64488;BMP280;50864;45.050;39.014;2022-10-22T03:43:36;102585.16;;;6.93
64488;BMP280;50864;45.050;39.014;2022-10-22T03:46:02;102580.88;;;6.92
64488;BMP280;50864;45.050;39.014;2022-10-22T03:48:28;102580.06;;;6.91
64488;BMP280;50864;45.050;39.014;2022-10-22T03:50:54;102577.78;;;6.88
64488;BMP280;50864;45.050;39.014;2022-10-22T03:53:20;102579.25;;;6.84
64488;BMP280;50864;45.050;39.014;2022-10-22T03:55:46;102577.03;;;6.81
64488;BMP280;50864;45.050;39.014;2022-10-22T03:58:12;102573.34;;;6.75
64488;BMP280;50864;45.050;39.014;2022-10-22T04:00:38;102581.97;;;6.71
64488;BMP280;50864;45.050;39.014;2022-10-22T04:03:05;102575.00;;;6.70
64488;BMP280;50864;45.050;39.014;2022-10-22T04:05:32;102578.50;;;6.64
64488;BMP280;50864;45.050;39.014;2022-10-22T04:07:58;102579.50;;;6.63
64488;BMP280;50864;45.050;39.014;2022-10-22T04:10:25;102589.75;;;6.66
64488;BMP280;50864;45.050;39.014;2022-10-22T04:12:51;102581.38;;;6.69
64488;BMP280;50864;45.050;39.014;2022-10-22T04:15:17;102583.41;;;6.73
64488;BMP280;50864;45.050;39.014;2022-10-22T04:17:43;102581.12;;;6.77
64488;BMP280;50864;45.050;39.014;2022-10-22T04:20:09;102579.63;;;6.87
64488;BMP280;50864;45.050;39.014;2022-10-22T04:22:35;102582.66;;;7.04
64488;BMP280;50864;45.050;39.014;2022-10-22T04:25:02;102587.72;;;7.19
64488;BMP280;50864;45.050;39.014;2022-10-22T04:27:30;102581.69;;;7.37
64488;BMP280;50864;45.050;39.014;2022-10-22T04:29:56;102595.19;;;7.66
64488;BMP280;50864;45.050;39.014;2022-10-22T04:32:22;102596.59;;;8.00
64488;BMP280;50864;45.050;39.014;2022-10-22T04:34:48;102592.28;;;8.24
64488;BMP280;50864;45.050;39.014;2022-10-22T04:37:14;102599.03;;;8.45
64488;BMP280;50864;45.050;39.014;2022-10-22T04:39:40;102588.88;;;8.72
64488;BMP280;50864;45.050;39.014;2022-10-22T04:42:06;102599.06;;;9.11
64488;BMP280;50864;45.050;39.014;2022-10-22T04:44:32;102605.41;;;9.58
64488;BMP280;50864;45.050;39.014;2022-10-22T04:46:58;102611.59;;;9.94
64488;BMP280;50864;45.050;39.014;2022-10-22T04:49:24;102604.16;;;10.19
64488;BMP280;50864;45.050;39.014;2022-10-22T04:51:50;102609.03;;;10.45
64488;BMP280;50864;45.050;39.014;2022-10-22T04:54:16;102606.88;;;10.71
64488;BMP280;50864;45.050;39.014;2022-10-22T04:56:42;102609.66;;;10.76
64488;BMP280;50864;45.050;39.014;2022-10-22T04:59:09;102615.56;;;10.78
64488;BMP280;50864;45.050;39.014;2022-10-22T05:01:40;102611.84;;;10.79
64488;BMP280;50864;45.050;39.014;2022-10-22T05:04:07;102604.84;;;10.78
64488;BMP280;50864;45.050;39.014;2022-10-22T05:06:35;102614.69;;;10.72
64488;BMP280;50864;45.050;39.014;2022-10-22T05:09:05;102615.03;;;10.64
64488;BMP280;50864;45.050;39.014;2022-10-22T05:11:34;102611.50;;;10.87
64488;BMP280;50864;45.050;39.014;2022-10-22T05:14:02;102619.56;;;11.03
64488;BMP280;50864;45.050;39.014;2022-10-22T05:16:29;102621.91;;;11.00
64488;BMP280;50864;45.050;39.014;2022-10-22T05:18:57;102620.81;;;10.84
64488;BMP280;50864;45.050;39.014;2022-10-22T05:21:23;102618.03;;;10.68
64488;BMP280;50864;45.050;39.014;2022-10-22T05:23:50;102607.06;;;10.41
64488;BMP280;50864;45.050;39.014;2022-10-22T05:26:18;102619.63;;;10.17
64488;BMP280;50864;45.050;39.014;2022-10-22T05:28:45;102631.62;;;10.03
64488;BMP280;50864;45.050;39.014;2022-10-22T05:31:12;102622.91;;;9.96
64488;BMP280;50864;45.050;39.014;2022-10-22T05:33:39;102628.03;;;9.97
64488;BMP280;50864;45.050;39.014;2022-10-22T05:36:07;102635.91;;;10.04
64488;BMP280;50864;45.050;39.014;2022-10-22T05:38:34;102626.03;;;10.04
64488;BMP280;50864;45.050;39.014;2022-10-22T05:41:05;102622.53;;;10.04
64488;BMP280;50864;45.050;39.014;2022-10-22T05:43:32;102627.44;;;10.07
64488;BMP280;50864;45.050;39.014;2022-10-22T05:46:07;102631.62;;;10.14
64488;BMP280;50864;45.050;39.014;2022-10-22T05:48:34;102633.22;;;10.27
64488;BMP280;50864;45.050;39.014;2022-10-22T05:51:05;102629.28;;;10.41
64488;BMP280;50864;45.050;39.014;2022-10-22T05:53:32;102636.25;;;10.54
64488;BMP280;50864;45.050;39.014;2022-10-22T05:56:00;102643.25;;;10.95
64488;BMP280;50864;45.050;39.014;2022-10-22T05:58:26;102641.22;;;11.30
64488;BMP280;50864;45.050;39.014;2022-10-22T06:00:52;102640.25;;;11.65
64488;BMP280;50864;45.050;39.014;2022-10-22T06:03:18;102642.50;;;11.89
64488;BMP280;50864;45.050;39.014;2022-10-22T06:05:44;102643.22;;;12.40
64488;BMP280;50864;45.050;39.014;2022-10-22T06:08:12;102639.72;;;12.83
64488;BMP280;50864;45.050;39.014;2022-10-22T06:10:41;102629.31;;;13.18
64488;BMP280;50864;45.050;39.014;2022-10-22T06:13:07;102634.03;;;13.38
64488;BMP280;50864;45.050;39.014;2022-10-22T06:15:33;102635.06;;;13.64
64488;BMP280;50864;45.050;39.014;2022-10-22T06:17:59;102632.06;;;14.02
64488;BMP280;50864;45.050;39.014;2022-10-22T06:20:25;102635.81;;;14.48
64488;BMP280;50864;45.050;39.014;2022-10-22T06:22:51;102628.62;;;14.84
64488;BMP280;50864;45.050;39.014;2022-10-22T06:25:17;102633.53;;;15.28
64488;BMP280;50864;45.050;39.014;2022-10-22T06:27:48;102628.66;;;15.50
64488;BMP280;50864;45.050;39.014;2022-10-22T06:30:15;102636.94;;;15.89
64488;BMP280;50864;45.050;39.014;2022-10-22T06:32:41;102630.00;;;16.37
64488;BMP280;50864;45.050;39.014;2022-10-22T06:35:07;102638.91;;;16.81
64488;BMP280;50864;45.050;39.014;2022-10-22T06:37:33;102640.81;;;17.15
64488;BMP280;50864;45.050;39.014;2022-10-22T06:40:00;102642.06;;;17.27
64488;BMP280;50864;45.050;39.014;2022-10-22T06:42:27;102633.25;;;17.40
64488;BMP280;50864;45.050;39.014;2022-10-22T06:44:53;102642.00;;;17.61
64488;BMP280;50864;45.050;39.014;2022-10-22T06:47:19;102641.34;;;17.93
64488;BMP280;50864;45.050;39.014;2022-10-22T06:49:45;102645.16;;;18.16
64488;BMP280;50864;45.050;39.014;2022-10-22T06:52:13;102636.22;;;18.34
64488;BMP280;50864;45.050;39.014;2022-10-22T06:54:39;102639.44;;;18.36
64488;BMP280;50864;45.050;39.014;2022-10-22T06:57:05;102640.84;;;18.33
64488;BMP280;50864;45.050;39.014;2022-10-22T06:59:31;102635.75;;;18.27
64488;BMP280;50864;45.050;39.014;2022-10-22T07:01:57;102644.09;;;18.35
64488;BMP280;50864;45.050;39.014;2022-10-22T07:04:23;102646.19;;;18.57
64488;BMP280;50864;45.050;39.014;2022-10-22T07:06:49;102634.25;;;18.77
64488;BMP280;50864;45.050;39.014;2022-10-22T07:09:15;102633.56;;;18.85
64488;BMP280;50864;45.050;39.014;2022-10-22T07:11:43;102625.63;;;18.88
64488;BMP280;50864;45.050;39.014;2022-10-22T07:14:10;102617.97;;;18.77
64488;BMP280;50864;45.050;39.014;2022-10-22T07:16:39;102619.78;;;18.81
64488;BMP280;50864;45.050;39.014;2022-10-22T07:19:10;102614.94;;;18.78
64488;BMP280;50864;45.050;39.014;2022-10-22T07:21:36;102624.19;;;18.77
64488;BMP280;50864;45.050;39.014;2022-10-22T07:24:03;102616.25;;;18.81
64488;BMP280;50864;45.050;39.014;2022-10-22T07:26:29;102617.16;;;18.76
64488;BMP280;50864;45.050;39.014;2022-10-22T07:28:58;102606.81;;;18.78
64488;BMP280;50864;45.050;39.014;2022-10-22T07:31:25;102611.78;;;18.71
64488;BMP280;50864;45.050;39.014;2022-10-22T07:33:51;102608.66;;;18.64
64488;BMP280;50864;45.050;39.014;2022-10-22T07:36:17;102605.50;;;18.76
64488;BMP280;50864;45.050;39.014;2022-10-22T07:38:48;102609.69;;;18.82
64488;BMP280;50864;45.050;39.014;2022-10-22T07:41:15;102619.28;;;18.60
64488;BMP280;50864;45.050;39.014;2022-10-22T07:43:41;102618.53;;;18.18
64488;BMP280;50864;45.050;39.014;2022-10-22T07:46:08;102606.72;;;17.90
64488;BMP280;50864;45.050;39.014;2022-10-22T07:48:37;102611.06;;;17.67
64488;BMP280;50864;45.050;39.014;2022-10-22T07:51:03;102613.56;;;18.06
64488;BMP280;50864;45.050;39.014;2022-10-22T07:53:30;102604.75;;;18.14
64488;BMP280;50864;45.050;39.014;2022-10-22T07:55:57;102610.22;;;17.90
64488;BMP280;50864;45.050;39.014;2022-10-22T07:58:23;102608.56;;;17.94
64488;BMP280;50864;45.050;39.014;2022-10-22T08:00:50;102608.41;;;17.86
64488;BMP280;50864;45.050;39.014;2022-10-22T08:03:17;102600.00;;;17.64
64488;BMP280;50864;45.050;39.014;2022-10-22T08:05:43;102612.41;;;18.12
64488;BMP280;50864;45.050;39.014;2022-10-22T08:08:13;102614.38;;;18.44
64488;BMP280;50864;45.050;39.014;2022-10-22T08:10:39;102603.53;;;18.44
64488;BMP280;50864;45.050;39.014;2022-10-22T08:13:07;102605.87;;;18.32
64488;BMP280;50864;45.050;39.014;2022-10-22T08:15:38;102600.97;;;18.52
64488;BMP280;50864;45.050;39.014;2022-10-22T08:18:05;102595.50;;;18.90
64488;BMP280;50864;45.050;39.014;2022-10-22T08:20:31;102597.31;;;19.08
64488;BMP280;50864;45.050;39.014;2022-10-22T08:22:57;102592.81;;;19.17
64488;BMP280;50864;45.050;39.014;2022-10-22T08:25:24;102599.41;;;18.97
64488;BMP280;50864;45.050;39.014;2022-10-22T08:27:50;102598.78;;;18.87
64488;BMP280;50864;45.050;39.014;2022-10-22T08:30:16;102594.88;;;18.93
64488;BMP280;50864;45.050;39.014;2022-10-22T08:32:43;102596.00;;;19.19
64488;BMP280;50864;45.050;39.014;2022-10-22T08:35:09;102591.88;;;18.94
64488;BMP280;50864;45.050;39.014;2022-10-22T08:37:35;102589.72;;;18.40
64488;BMP280;50864;45.050;39.014;2022-10-22T08:40:02;102583.56;;;18.21
64488;BMP280;50864;45.050;39.014;2022-10-22T08:42:46;102588.53;;;18.33
64488;BMP280;50864;45.050;39.014;2022-10-22T08:45:33;102585.97;;;18.74
64488;BMP280;50864;45.050;39.014;2022-10-22T08:50:50;102578.72;;;19.56
64488;BMP280;50864;45.050;39.014;2022-10-22T08:53:19;102589.41;;;19.66
64488;BMP280;50864;45.050;39.014;2022-10-22T08:55:46;102587.28;;;19.49
64488;BMP280;50864;45.050;39.014;2022-10-22T08:59:01;102577.81;;;19.06
64488;BMP280;50864;45.050;39.014;2022-10-22T09:01:12;102583.53;;;19.18
64488;BMP280;50864;45.050;39.014;2022-10-22T09:04:03;102573.22;;;19.61
64488;BMP280;50864;45.050;39.014;2022-10-22T09:06:32;102574.38;;;19.82
64488;BMP280;50864;45.050;39.014;2022-10-22T09:09:04;102571.81;;;19.99
64488;BMP280;50864;45.050;39.014;2022-10-22T09:11:32;102574.94;;;20.06
64488;BMP280;50864;45.050;39.014;2022-10-22T09:13:59;102573.94;;;20.02
64488;BMP280;50864;45.050;39.014;2022-10-22T09:16:37;102562.06;;;20.20
64488;BMP280;50864;45.050;39.014;2022-10-22T09:24:43;102550.06;;;20.66
64488;BMP280;50864;45.050;39.014;2022-10-22T09:27:15;102549.25;;;20.65
64488;BMP280;50864;45.050;39.014;2022-10-22T09:29:43;102561.94;;;20.48
64488;BMP280;50864;45.050;39.014;2022-10-22T09:32:09;102554.38;;;20.58
64488;BMP280;50864;45.050;39.014;2022-10-22T09:34:35;102552.78;;;20.66
64488;BMP280;50864;45.050;39.014;2022-10-22T09:37:07;102541.84;;;20.57
64488;BMP280;50864;45.050;39.014;2022-10-22T09:42:03;102536.94;;;20.37
64488;BMP280;50864;45.050;39.014;2022-10-22T09:44:32;102544.56;;;20.35
64488;BMP280;50864;45.050;39.014;2022-10-22T09:47:03;102538.59;;;20.47
64488;BMP280;50864;45.050;39.014;2022-10-22T09:49:32;102528.56;;;20.56
64488;BMP280;50864;45.050;39.014;2022-10-22T09:51:59;102528.13;;;20.62
64488;BMP280;50864;45.050;39.014;2022-10-22T09:54:36;102534.87;;;20.73
64488;BMP280;50864;45.050;39.014;2022-10-22T09:57:15;102535.59;;;20.88
64488;BMP280;50864;45.050;39.014;2022-10-22T09:59:46;102530.03;;;21.01
64488;BMP280;50864;45.050;39.014;2022-10-22T10:02:15;102540.66;;;21.11
64488;BMP280;50864;45.050;39.014;2022-10-22T10:04:50;102525.97;;;20.82
64488;BMP280;50864;45.050;39.014;2022-10-22T10:07:22;102524.94;;;20.69
64488;BMP280;50864;45.050;39.014;2022-10-22T10:09:50;102525.31;;;20.76
64488;BMP280;50864;45.050;39.014;2022-10-22T10:15:30;102523.38;;;20.77
64488;BMP280;50864;45.050;39.014;2022-10-22T10:29:59;102507.00;;;20.68
64488;BMP280;50864;45.050;39.014;2022-10-22T10:35:27;102507.75;;;20.51
64488;BMP280;50864;45.050;39.014;2022-10-22T10:46:48;102493.69;;;20.58
64488;BMP280;50864;45.050;39.014;2022-10-22T10:49:18;102485.66;;;20.53
64488;BMP280;50864;45.050;39.014;2022-10-22T11:06:11;102461.47;;;20.20
64488;BMP280;50864;45.050;39.014;2022-10-22T11:08:42;102469.69;;;20.29
64488;BMP280;50864;45.050;39.014;2022-10-22T11:11:17;102464.66;;;20.23
64488;BMP280;50864;45.050;39.014;2022-10-22T11:14:21;102464.03;;;20.17
64488;BMP280;50864;45.050;39.014;2022-10-22T11:16:54;102454.13;;;20.21
64488;BMP280;50864;45.050;39.014;2022-10-22T11:19:23;102459.22;;;20.23
64488;BMP280;50864;45.050;39.014;2022-10-22T11:21:57;102454.19;;;20.30
64488;BMP280;50864;45.050;39.014;2022-10-22T11:24:32;102445.25;;;20.38
64488;BMP280;50864;45.050;39.014;2022-10-22T11:29:36;102447.88;;;20.20
64488;BMP280;50864;45.050;39.014;2022-10-22T11:32:05;102448.19;;;20.19
64488;BMP280;50864;45.050;39.014;2022-10-22T11:34:57;102448.78;;;20.07
64488;BMP280;50864;45.050;39.014;2022-10-22T11:37:25;102436.16;;;19.89
64488;BMP280;50864;45.050;39.014;2022-10-22T11:39:57;102441.41;;;19.86
64488;BMP280;50864;45.050;39.014;2022-10-22T11:42:39;102447.13;;;19.84
64488;BMP280;50864;45.050;39.014;2022-10-22T11:50:27;102440.34;;;19.73
64488;BMP280;50864;45.050;39.014;2022-10-22T11:53:16;102442.06;;;19.69
64488;BMP280;50864;45.050;39.014;2022-10-22T11:55:46;102433.84;;;19.60
64488;BMP280;50864;45.050;39.014;2022-10-22T11:58:42;102439.78;;;19.62
64488;BMP280;50864;45.050;39.014;2022-10-22T12:06:24;102425.66;;;19.52
64488;BMP280;50864;45.050;39.014;2022-10-22T12:16:28;102421.66;;;19.22
64488;BMP280;50864;45.050;39.014;2022-10-22T12:21:37;102414.06;;;19.10
64488;BMP280;50864;45.050;39.014;2022-10-22T12:24:05;102416.78;;;19.10
64488;BMP280;50864;45.050;39.014;2022-10-22T12:26:32;102414.84;;;19.11
64488;BMP280;50864;45.050;39.014;2022-10-22T12:29:04;102422.19;;;19.10
64488;BMP280;50864;45.050;39.014;2022-10-22T12:31:37;102420.59;;;19.09
64488;BMP280;50864;45.050;39.014;2022-10-22T12:34:03;102416.06;;;19.05
64488;BMP280;50864;45.050;39.014;2022-10-22T12:36:33;102418.47;;;18.93
64488;BMP280;50864;45.050;39.014;2022-10-22T12:39:07;102405.19;;;18.91
64488;BMP280;50864;45.050;39.014;2022-10-22T12:41:35;102415.69;;;18.84
64488;BMP280;50864;45.050;39.014;2022-10-22T12:44:03;102411.47;;;18.78
64488;BMP280;50864;45.050;39.014;2022-10-22T12:46:32;102411.56;;;18.73
64488;BMP280;50864;45.050;39.014;2022-10-22T12:49:00;102418.19;;;18.67
64488;BMP280;50864;45.050;39.014;2022-10-22T12:51:26;102410.72;;;18.59
64488;BMP280;50864;45.050;39.014;2022-10-22T12:53:55;102414.03;;;18.42
64488;BMP280;50864;45.050;39.014;2022-10-22T12:56:24;102410.88;;;18.22
64488;BMP280;50864;45.050;39.014;2022-10-22T13:01:25;102403.19;;;17.96
64488;BMP280;50864;45.050;39.014;2022-10-22T13:06:35;102400.38;;;17.64
64488;BMP280;50864;45.050;39.014;2022-10-22T13:09:12;102401.34;;;17.54
64488;BMP280;50864;45.050;39.014;2022-10-22T13:11:52;102397.75;;;17.40
64488;BMP280;50864;45.050;39.014;2022-10-22T13:14:30;102403.16;;;17.22
64488;BMP280;50864;45.050;39.014;2022-10-22T13:17:17;102389.81;;;17.06
64488;BMP280;50864;45.050;39.014;2022-10-22T13:19:51;102395.13;;;16.93
64488;BMP280;50864;45.050;39.014;2022-10-22T13:25:01;102390.28;;;16.66
64488;BMP280;50864;45.050;39.014;2022-10-22T13:27:29;102387.69;;;16.56
64488;BMP280;50864;45.050;39.014;2022-10-22T13:30:00;102387.81;;;16.41
64488;BMP280;50864;45.050;39.014;2022-10-22T13:32:32;102394.41;;;16.30
64488;BMP280;50864;45.050;39.014;2022-10-22T13:35:00;102383.72;;;16.15
64488;BMP280;50864;45.050;39.014;2022-10-22T13:37:29;102377.62;;;15.99
64488;BMP280;50864;45.050;39.014;2022-10-22T13:39:55;102384.72;;;15.90
64488;BMP280;50864;45.050;39.014;2022-10-22T13:42:21;102388.28;;;15.80
64488;BMP280;50864;45.050;39.014;2022-10-22T13:44:47;102383.75;;;15.71
64488;BMP280;50864;45.050;39.014;2022-10-22T13:47:27;102387.03;;;15.57
64488;BMP280;50864;45.050;39.014;2022-10-22T13:49:55;102387.66;;;15.44
64488;BMP280;50864;45.050;39.014;2022-10-22T13:52:37;102387.75;;;15.29
64488;BMP280;50864;45.050;39.014;2022-10-22T13:55:20;102389.13;;;15.16
64488;BMP280;50864;45.050;39.014;2022-10-22T13:57:46;102386.50;;;15.01
64488;BMP280;50864;45.050;39.014;2022-10-22T14:00:16;102388.16;;;14.87
64488;BMP280;50864;45.050;39.014;2022-10-22T14:02:48;102389.53;;;14.75
64488;BMP280;50864;45.050;39.014;2022-10-22T14:05:16;102386.03;;;14.64
64488;BMP280;50864;45.050;39.014;2022-10-22T14:07:43;102386.59;;;14.51
64488;BMP280;50864;45.050;39.014;2022-10-22T14:10:18;102385.25;;;14.38
64488;BMP280;50864;45.050;39.014;2022-10-22T14:12:45;102383.88;;;14.26
64488;BMP280;50864;45.050;39.014;2022-10-22T14:15:13;102393.59;;;14.11
64488;BMP280;50864;45.050;39.014;2022-10-22T14:17:41;102395.16;;;14.02
64488;BMP280;50864;45.050;39.014;2022-10-22T14:20:14;102391.91;;;13.90
64488;BMP280;50864;45.050;39.014;2022-10-22T14:22:41;102386.50;;;13.80
64488;BMP280;50864;45.050;39.014;2022-10-22T14:25:11;102381.31;;;13.58
64488;BMP280;50864;45.050;39.014;2022-10-22T14:27:38;102384.81;;;13.54
64488;BMP280;50864;45.050;39.014;2022-10-22T14:30:04;102378.06;;;13.46
64488;BMP280;50864;45.050;39.014;2022-10-22T14:32:30;102380.97;;;13.40
64488;BMP280;50864;45.050;39.014;2022-10-22T14:34:57;102386.59;;;13.33
64488;BMP280;50864;45.050;39.014;2022-10-22T14:37:24;102379.81;;;13.25
64488;BMP280;50864;45.050;39.014;2022-10-22T14:39:50;102377.66;;;13.17
64488;BMP280;50864;45.050;39.014;2022-10-22T14:42:27;102380.56;;;13.11
64488;BMP280;50864;45.050;39.014;2022-10-22T14:44:53;102377.06;;;13.05
64488;BMP280;50864;45.050;39.014;2022-10-22T14:47:19;102373.78;;;12.98
64488;BMP280;50864;45.050;39.014;2022-10-22T14:49:46;102386.63;;;12.91
64488;BMP280;50864;45.050;39.014;2022-10-22T14:52:12;102382.81;;;12.87
64488;BMP280;50864;45.050;39.014;2022-10-22T14:54:37;102381.47;;;12.84
64488;BMP280;50864;45.050;39.014;2022-10-22T14:57:04;102383.63;;;12.82
64488;BMP280;50864;45.050;39.014;2022-10-22T14:59:30;102384.44;;;12.83
64488;BMP280;50864;45.050;39.014;2022-10-22T15:01:56;102388.69;;;12.79
64488;BMP280;50864;45.050;39.014;2022-10-22T15:04:23;102384.41;;;12.78
64488;BMP280;50864;45.050;39.014;2022-10-22T15:06:51;102388.38;;;12.75
64488;BMP280;50864;45.050;39.014;2022-10-22T15:09:22;102388.09;;;12.72
64488;BMP280;50864;45.050;39.014;2022-10-22T15:11:49;102392.94;;;12.70
64488;BMP280;50864;45.050;39.014;2022-10-22T15:14:15;102392.63;;;12.66
64488;BMP280;50864;45.050;39.014;2022-10-22T15:16:41;102391.00;;;12.65
64488;BMP280;50864;45.050;39.014;2022-10-22T15:19:07;102397.69;;;12.63
64488;BMP280;50864;45.050;39.014;2022-10-22T15:21:35;102400.06;;;12.59
64488;BMP280;50864;45.050;39.014;2022-10-22T15:24:01;102396.88;;;12.57
64488;BMP280;50864;45.050;39.014;2022-10-22T15:26:27;102394.69;;;12.54
64488;BMP280;50864;45.050;39.014;2022-10-22T15:28:53;102390.56;;;12.47
64488;BMP280;50864;45.050;39.014;2022-10-22T15:31:41;102398.84;;;12.40
64488;BMP280;50864;45.050;39.014;2022-10-22T15:34:08;102386.66;;;12.32
64488;BMP280;50864;45.050;39.014;2022-10-22T15:36:33;102386.31;;;12.24
64488;BMP280;50864;45.050;39.014;2022-10-22T15:39:05;102400.25;;;12.21
64488;BMP280;50864;45.050;39.014;2022-10-22T15:41:31;102405.59;;;12.16
64488;BMP280;50864;45.050;39.014;2022-10-22T15:43:57;102406.28;;;12.06
64488;BMP280;50864;45.050;39.014;2022-10-22T15:46:23;102408.34;;;11.99